Time;durP1;ratioP1;P1;durP2;ratioP2;P2;SDS_P1;SDS_P2;PMS_P1;PMS_P2;Temp;Humidity;BMP_temperature;BMP_pressure;BME280_temperature;BME280_humidity;BME280_pressure;Samples;Min_cycle;Max_cycle;Signal;HPM_P1;HPM_P2
2023/01/12 00:00:35;;;;;;;22.63;10.00;;;5.10;99.90;;;;;;5244222;28;20464;-51
2023/01/12 00:03:05;;;;;;;39.67;13.53;;;5.10;99.90;;;;;;5219262;28;20555;-52
2023/01/12 00:05:36;;;;;;;24.73;12.20;;;5.10;99.90;;;;;;5223475;28;21029;-52
2023/01/12 00:08:10;;;;;;;17.43;10.70;;;5.10;99.90;;;;;;5244624;28;20232;-51
2023/01/12 00:10:41;;;;;;;24.20;11.93;;;5.10;99.90;;;;;;5247061;28;20631;-52
2023/01/12 00:13:12;;;;;;;26.23;11.80;;;5.00;99.90;;;;;;5245130;28;20447;-50
2023/01/12 00:18:32;;;;;;;21.20;10.30;;;5.00;99.90;;;;;;5246704;28;20220;-49
2023/01/12 00:21:06;;;;;;;24.70;10.33;;;4.90;99.90;;;;;;5246593;28;20847;-50
2023/01/12 00:23:38;;;;;;;20.27;10.03;;;4.90;99.90;;;;;;5249172;28;20652;-51
2023/01/12 00:26:09;;;;;;;20.77;12.27;;;4.90;99.90;;;;;;5225280;28;20818;-50
2023/01/12 00:28:40;;;;;;;27.93;12.20;;;5.00;99.90;;;;;;5248426;28;20451;-51
2023/01/12 00:31:11;;;;;;;14.87;9.73;;;5.10;99.90;;;;;;5254775;28;20431;-51
2023/01/12 00:33:42;;;;;;;27.10;11.77;;;5.10;99.90;;;;;;5248611;28;20278;-51
2023/01/12 00:36:16;;;;;;;29.53;10.40;;;5.20;99.90;;;;;;5247617;28;20761;-51
2023/01/12 00:38:47;;;;;;;36.07;12.70;;;5.20;99.90;;;;;;5248375;28;20207;-51
2023/01/12 00:46:56;;;;;;;28.53;10.00;;;5.30;99.90;;;;;;5248579;28;20432;-52
2023/01/12 00:49:27;;;;;;;29.13;9.37;;;5.30;99.90;;;;;;5246488;28;20463;-51
2023/01/12 00:51:58;;;;;;;51.37;12.10;;;5.30;99.90;;;;;;5244679;28;20257;-50
2023/01/12 00:54:28;;;;;;;31.80;10.30;;;5.20;99.90;;;;;;5244018;28;20191;-51
2023/01/12 00:57:00;;;;;;;37.13;10.80;;;5.10;99.90;;;;;;5248823;28;20200;-51
2023/01/12 00:59:31;;;;;;;19.40;8.20;;;5.10;99.90;;;;;;5230708;28;20198;-51
2023/01/12 01:02:02;;;;;;;22.73;9.10;;;5.10;99.90;;;;;;5247567;28;20435;-51
2023/01/12 01:04:36;;;;;;;37.50;8.63;;;5.10;99.90;;;;;;5233776;28;20265;-50
2023/01/12 01:07:06;;;;;;;18.90;7.80;;;5.10;99.90;;;;;;5231763;28;20518;-52
2023/01/12 01:09:37;;;;;;;20.83;7.60;;;5.10;99.90;;;;;;5228146;28;20859;-50
2023/01/12 01:12:08;;;;;;;15.43;6.47;;;5.10;99.90;;;;;;5246767;28;20185;-51
2023/01/12 01:14:39;;;;;;;21.87;7.50;;;5.10;99.90;;;;;;5243104;28;20501;-51
2023/01/12 01:17:09;;;;;;;24.30;7.40;;;5.00;99.90;;;;;;5247455;28;20446;-51
2023/01/12 01:19:42;;;;;;;18.93;6.17;;;5.00;99.90;;;;;;5246549;28;20218;-52
2023/01/12 01:22:13;;;;;;;35.03;7.40;;;5.00;99.90;;;;;;5236761;28;20209;-51
2023/01/12 01:24:43;;;;;;;23.87;7.17;;;5.10;99.90;;;;;;5244831;28;20432;-52
2023/01/12 01:27:14;;;;;;;26.87;7.07;;;4.90;99.90;;;;;;5229983;28;20182;-51
2023/01/12 01:29:45;;;;;;;14.63;5.50;;;4.90;99.90;;;;;;5247751;28;20197;-50
2023/01/12 01:32:16;;;;;;;18.90;5.10;;;4.90;99.90;;;;;;5246967;28;20536;-51
2023/01/12 01:34:47;;;;;;;17.50;6.30;;;4.80;99.90;;;;;;5245859;28;20192;-50
2023/01/12 01:37:18;;;;;;;14.70;5.30;;;5.00;99.90;;;;;;5228515;28;20236;-51
2023/01/12 01:39:49;;;;;;;28.23;7.00;;;5.00;99.90;;;;;;5241442;28;20197;-52
2023/01/12 01:42:29;;;;;;;18.47;4.70;;;5.00;99.90;;;;;;5227951;28;20468;-52
2023/01/12 01:45:02;;;;;;;14.23;5.10;;;5.10;99.90;;;;;;5227686;28;20279;-51
2023/01/12 01:47:40;;;;;;;21.23;6.20;;;5.00;99.90;;;;;;5229245;28;20419;-51
2023/01/12 01:50:32;;;;;;;20.70;6.20;;;5.00;99.90;;;;;;5226833;28;20472;-51
2023/01/12 01:53:08;;;;;;;26.77;4.90;;;5.10;99.90;;;;;;5245389;28;20438;-51
2023/01/12 01:55:48;;;;;;;10.63;4.67;;;5.20;99.90;;;;;;5247411;28;20435;-52
2023/01/12 01:58:29;;;;;;;20.43;5.07;;;5.30;99.90;;;;;;5243684;28;20552;-52
2023/01/12 02:01:00;;;;;;;12.70;5.13;;;5.40;99.90;;;;;;5244805;28;20475;-51
2023/01/12 02:03:31;;;;;;;8.90;4.10;;;5.40;99.90;;;;;;5213894;28;20464;-52
2023/01/12 02:06:04;;;;;;;17.23;4.53;;;5.30;99.90;;;;;;5247348;28;20182;-51
2023/01/12 02:08:56;;;;;;;13.83;4.23;;;5.40;99.90;;;;;;5226545;28;20510;-52
2023/01/12 02:17:32;;;;;;;9.77;3.60;;;5.40;99.90;;;;;;5244038;28;20592;-51
2023/01/12 02:20:33;;;;;;;19.50;5.70;;;5.40;99.90;;;;;;5244530;28;20462;-52
2023/01/12 02:23:40;;;;;;;11.90;4.30;;;5.50;99.90;;;;;;5242288;28;20486;-52
2023/01/12 02:26:35;;;;;;;22.70;4.33;;;5.60;99.90;;;;;;5241966;28;20936;-51
2023/01/12 02:29:37;;;;;;;11.73;3.33;;;5.60;99.90;;;;;;5241964;28;20476;-51
2023/01/12 02:32:30;;;;;;;14.10;3.97;;;5.50;99.90;;;;;;5238521;28;20521;-52
2023/01/12 02:35:29;;;;;;;14.23;4.40;;;5.50;99.90;;;;;;5229235;28;20500;-52
2023/01/12 02:38:28;;;;;;;22.33;3.93;;;5.50;99.90;;;;;;5230932;28;20463;-52
2023/01/12 02:41:17;;;;;;;23.20;4.10;;;5.50;99.90;;;;;;5220044;28;20480;-51
2023/01/12 02:43:49;;;;;;;16.20;3.87;;;5.50;99.90;;;;;;5217697;28;20467;-51
2023/01/12 02:46:28;;;;;;;12.47;4.00;;;5.50;99.90;;;;;;5227825;28;20418;-52
2023/01/12 02:49:07;;;;;;;10.50;3.37;;;5.60;99.90;;;;;;5239586;28;20452;-51
2023/01/12 02:51:53;;;;;;;13.77;4.00;;;5.60;99.90;;;;;;5237264;28;20433;-51
2023/01/12 02:54:27;;;;;;;9.07;3.23;;;5.60;99.90;;;;;;5239273;28;20502;-52
2023/01/12 02:57:05;;;;;;;21.13;4.27;;;5.60;99.90;;;;;;5197582;28;20950;-52
2023/01/12 02:59:39;;;;;;;14.20;4.10;;;5.50;99.90;;;;;;5224830;28;20460;-52
2023/01/12 03:02:13;;;;;;;18.60;3.60;;;5.50;99.90;;;;;;5227956;28;20435;-52
2023/01/12 03:04:44;;;;;;;18.93;3.20;;;5.60;99.90;;;;;;5244707;28;20431;-52
2023/01/12 03:07:37;;;;;;;15.80;4.10;;;5.60;99.90;;;;;;5244821;28;20440;-52
2023/01/12 03:10:35;;;;;;;13.30;3.70;;;5.60;99.90;;;;;;5242730;28;20186;-52
2023/01/12 03:13:11;;;;;;;15.03;3.33;;;5.60;99.90;;;;;;5245373;28;20439;-51
2023/01/12 03:15:47;;;;;;;17.80;3.27;;;5.70;99.90;;;;;;5226341;28;20433;-53
2023/01/12 03:18:28;;;;;;;21.33;3.40;;;5.50;99.90;;;;;;5225344;28;20511;-50
2023/01/12 03:21:08;;;;;;;18.67;3.20;;;5.60;99.90;;;;;;5250766;28;20476;-53
2023/01/12 03:23:46;;;;;;;16.37;3.60;;;5.60;99.90;;;;;;5242610;28;20462;-51
2023/01/12 03:26:22;;;;;;;20.17;4.80;;;5.60;99.90;;;;;;5228038;28;20510;-52
2023/01/12 03:29:13;;;;;;;22.33;3.40;;;5.60;99.90;;;;;;5244426;28;20452;-52
2023/01/12 03:31:44;;;;;;;22.90;3.20;;;5.60;99.90;;;;;;5236866;28;20440;-52
2023/01/12 03:34:15;;;;;;;13.23;3.17;;;5.60;99.90;;;;;;5225851;28;20492;-50
2023/01/12 03:37:05;;;;;;;30.67;4.30;;;5.60;99.90;;;;;;5227448;28;20186;-51
2023/01/12 03:39:42;;;;;;;15.10;2.67;;;5.60;99.90;;;;;;5252299;28;20761;-50
2023/01/12 03:42:20;;;;;;;16.80;2.93;;;5.60;99.90;;;;;;5228166;28;20428;-52
2023/01/12 03:44:56;;;;;;;16.33;2.90;;;5.60;99.90;;;;;;5238418;28;20436;-51
2023/01/12 03:47:30;;;;;;;31.40;3.40;;;5.60;99.90;;;;;;5239789;28;20487;-50
2023/01/12 03:50:07;;;;;;;9.83;2.60;;;5.60;99.90;;;;;;5227851;28;20472;-50
2023/01/12 03:52:41;;;;;;;20.17;3.47;;;5.60;99.90;;;;;;5227568;28;20513;-52
2023/01/12 03:55:16;;;;;;;15.30;4.17;;;5.60;99.90;;;;;;5255691;28;20430;-51
2023/01/12 03:57:48;;;;;;;12.10;3.80;;;5.60;99.90;;;;;;5226679;28;20440;-52
2023/01/12 04:00:20;;;;;;;13.10;2.93;;;5.60;99.90;;;;;;5224694;28;20573;-51
2023/01/12 04:03:08;;;;;;;14.47;3.10;;;5.60;99.90;;;;;;5207460;28;20468;-52
2023/01/12 04:05:40;;;;;;;8.27;2.50;;;5.60;99.90;;;;;;5226472;28;21050;-52
2023/01/12 04:08:14;;;;;;;11.63;2.40;;;5.60;99.90;;;;;;5241329;28;20945;-52
2023/01/12 04:10:45;;;;;;;25.90;3.47;;;5.70;99.90;;;;;;5224661;28;20426;-50
2023/01/12 04:13:15;;;;;;;14.60;2.40;;;5.70;99.90;;;;;;5231339;28;20448;-52
2023/01/12 04:15:47;;;;;;;14.43;2.60;;;5.70;99.90;;;;;;5242023;28;20243;-51
2023/01/12 04:18:18;;;;;;;10.93;2.70;;;5.60;99.90;;;;;;5241195;28;20217;-51
2023/01/12 04:20:49;;;;;;;19.13;2.80;;;5.70;99.90;;;;;;5243885;28;20929;-50
2023/01/12 04:23:19;;;;;;;11.13;2.90;;;5.70;99.90;;;;;;5229783;28;20216;-52
2023/01/12 04:25:50;;;;;;;17.00;3.50;;;5.80;99.90;;;;;;5226782;28;20464;-52
2023/01/12 04:28:20;;;;;;;15.23;2.60;;;5.70;99.90;;;;;;5243337;28;20662;-51
2023/01/12 04:30:51;;;;;;;15.70;3.00;;;5.70;99.90;;;;;;5240246;28;20265;-52
2023/01/12 04:33:22;;;;;;;15.40;3.40;;;5.60;99.90;;;;;;5229249;28;20189;-51
2023/01/12 04:35:53;;;;;;;9.13;3.07;;;5.70;99.90;;;;;;5227431;28;20190;-51
2023/01/12 04:38:23;;;;;;;10.77;2.33;;;5.80;99.90;;;;;;5217374;28;20202;-50
2023/01/12 04:40:54;;;;;;;24.43;3.27;;;5.80;99.90;;;;;;5233741;28;20684;-52
2023/01/12 04:43:25;;;;;;;16.90;3.10;;;5.70;99.90;;;;;;5227999;28;20248;-51
2023/01/12 04:45:56;;;;;;;8.43;2.30;;;5.70;99.90;;;;;;5240516;28;20186;-50
2023/01/12 04:48:27;;;;;;;15.27;2.40;;;5.70;99.90;;;;;;5228117;28;20202;-51
2023/01/12 04:50:59;;;;;;;17.77;2.70;;;5.80;99.90;;;;;;5240658;28;20178;-50
2023/01/12 04:53:30;;;;;;;14.17;2.17;;;5.80;99.90;;;;;;5225940;28;20549;-51
2023/01/12 04:56:05;;;;;;;4.90;2.00;;;5.80;99.90;;;;;;5228944;28;20534;-51
2023/01/12 04:58:36;;;;;;;5.87;2.80;;;5.90;99.90;;;;;;5225425;28;20201;-52
2023/01/12 05:01:18;;;;;;;12.40;2.50;;;6.00;99.90;;;;;;5226847;28;20487;-51
2023/01/12 05:03:48;;;;;;;8.57;2.90;;;6.10;99.90;;;;;;5234342;28;20830;-50
2023/01/12 05:06:19;;;;;;;10.37;2.53;;;6.20;99.90;;;;;;5249126;28;20440;-51
2023/01/12 05:11:39;;;;;;;9.63;2.63;;;6.20;99.90;;;;;;5232133;28;20682;-52
2023/01/12 05:14:10;;;;;;;8.70;2.20;;;6.30;99.90;;;;;;5248274;28;20432;-50
2023/01/12 05:16:41;;;;;;;7.00;1.60;;;6.40;99.90;;;;;;5229012;28;20448;-52
2023/01/12 05:19:12;;;;;;;7.87;2.60;;;6.50;99.90;;;;;;5231178;28;20476;-51
2023/01/12 05:21:45;;;;;;;7.47;2.80;;;6.50;99.90;;;;;;5230989;28;20731;-52
2023/01/12 05:24:16;;;;;;;14.33;2.97;;;6.50;99.90;;;;;;5222001;28;20293;-51
2023/01/12 05:26:47;;;;;;;9.63;3.07;;;6.60;99.90;;;;;;5236760;28;20516;-50
2023/01/12 05:29:18;;;;;;;13.87;1.80;;;6.60;99.90;;;;;;5231389;28;20195;-52
2023/01/12 05:31:49;;;;;;;14.20;2.00;;;6.70;99.90;;;;;;5243037;28;20202;-51
2023/01/12 05:34:19;;;;;;;3.53;1.47;;;6.70;99.90;;;;;;5245711;28;20216;-52
2023/01/12 05:36:50;;;;;;;7.40;2.80;;;6.80;99.90;;;;;;5231290;28;20194;-52
2023/01/12 05:39:21;;;;;;;8.30;2.10;;;6.80;99.90;;;;;;5244996;28;20202;-51
2023/01/12 05:44:41;;;;;;;6.60;2.60;;;6.90;99.90;;;;;;5240433;28;20716;-51
2023/01/12 05:47:12;;;;;;;6.77;2.10;;;7.00;99.90;;;;;;5242002;28;20421;-51
2023/01/12 05:49:43;;;;;;;4.70;1.80;;;7.10;99.90;;;;;;5224974;28;20296;-50
2023/01/12 05:52:13;;;;;;;6.50;2.20;;;7.00;99.90;;;;;;5245233;28;20433;-52
2023/01/12 05:54:44;;;;;;;8.43;1.63;;;7.00;99.90;;;;;;5249029;28;20236;-52
2023/01/12 05:57:15;;;;;;;6.97;2.50;;;7.00;99.90;;;;;;5236926;28;20183;-51
2023/01/12 05:59:45;;;;;;;7.53;1.77;;;7.00;99.90;;;;;;5242554;28;20262;-52
2023/01/12 06:02:16;;;;;;;10.47;2.10;;;7.00;99.90;;;;;;5239047;28;20225;-50
2023/01/12 06:04:47;;;;;;;7.07;1.93;;;7.00;99.90;;;;;;5225792;28;20183;-52
2023/01/12 06:07:18;;;;;;;7.33;1.73;;;7.00;99.90;;;;;;5246321;28;20566;-52
2023/01/12 06:09:49;;;;;;;6.90;1.70;;;7.10;99.90;;;;;;5248360;28;20277;-50
2023/01/12 06:15:09;;;;;;;1.53;1.40;;;7.10;99.90;;;;;;5240764;28;20205;-52
2023/01/12 06:17:39;;;;;;;7.80;2.53;;;7.10;99.90;;;;;;5240479;28;20433;-53
2023/01/12 06:20:15;;;;;;;9.93;3.43;;;7.10;99.90;;;;;;5223210;28;20448;-52
2023/01/12 06:22:46;;;;;;;5.73;2.03;;;7.10;99.90;;;;;;5216580;28;20678;-51
2023/01/12 06:25:17;;;;;;;10.17;2.50;;;7.10;99.90;;;;;;5232527;28;20439;-51
2023/01/12 06:27:47;;;;;;;10.90;2.40;;;7.10;99.90;;;;;;5244377;28;20189;-52
2023/01/12 06:30:18;;;;;;;3.80;1.63;;;7.10;99.90;;;;;;5224029;28;20551;-51
2023/01/12 06:32:49;;;;;;;5.20;1.90;;;7.00;99.90;;;;;;5226977;28;20190;-51
2023/01/12 06:35:20;;;;;;;4.27;1.70;;;7.10;99.90;;;;;;5241407;28;20217;-51
2023/01/12 06:37:55;;;;;;;7.20;2.37;;;7.20;99.90;;;;;;5239041;28;20273;-52
2023/01/12 06:40:25;;;;;;;14.03;2.50;;;7.20;99.90;;;;;;5226100;28;20178;-52
2023/01/12 06:42:56;;;;;;;7.60;2.37;;;7.20;99.90;;;;;;5241172;28;20467;-49
2023/01/12 06:45:27;;;;;;;6.03;2.00;;;7.20;99.90;;;;;;5221891;28;20182;-50
2023/01/12 06:47:58;;;;;;;9.40;1.43;;;7.20;99.90;;;;;;5229697;28;20655;-49
2023/01/12 06:50:29;;;;;;;6.87;2.70;;;7.20;99.90;;;;;;5243068;28;20706;-51
2023/01/12 06:53:02;;;;;;;6.30;1.97;;;7.20;99.90;;;;;;5243225;28;20182;-50
2023/01/12 06:55:33;;;;;;;6.27;1.90;;;7.30;99.90;;;;;;5226632;28;20441;-50
2023/01/12 06:58:06;;;;;;;15.67;2.10;;;7.30;99.90;;;;;;5234036;28;20539;-50
2023/01/12 07:00:37;;;;;;;8.93;2.10;;;7.40;99.90;;;;;;5242087;28;20232;-55
2023/01/12 07:03:15;;;;;;;8.30;2.60;;;7.40;99.90;;;;;;5221760;28;21034;-49
2023/01/12 07:05:46;;;;;;;3.80;1.67;;;7.40;99.90;;;;;;5218477;28;20186;-49
2023/01/12 07:08:18;;;;;;;5.30;1.90;;;7.30;99.90;;;;;;5239941;28;20964;-53
2023/01/12 07:10:48;;;;;;;3.70;2.20;;;7.30;99.90;;;;;;5226002;28;20526;-51
2023/01/12 07:13:22;;;;;;;7.97;2.03;;;7.20;99.90;;;;;;5228511;28;20429;-52
2023/01/12 07:15:53;;;;;;;12.20;2.20;;;7.20;99.90;;;;;;5242247;28;20182;-53
2023/01/12 07:18:24;;;;;;;11.77;1.93;;;7.30;99.90;;;;;;5224840;28;20476;-50
2023/01/12 07:20:55;;;;;;;10.10;2.63;;;7.30;99.90;;;;;;5225966;28;20272;-49
2023/01/12 07:23:26;;;;;;;5.13;2.20;;;7.50;99.90;;;;;;5228141;28;20464;-50
2023/01/12 07:25:57;;;;;;;22.43;2.77;;;7.60;99.90;;;;;;5227734;28;20447;-51
2023/01/12 07:28:33;;;;;;;10.00;2.10;;;7.60;99.90;;;;;;5226507;28;21018;-50
2023/01/12 07:31:04;;;;;;;11.73;2.50;;;7.50;99.90;;;;;;5245088;28;20195;-50
2023/01/12 07:33:37;;;;;;;9.83;2.23;;;7.50;99.90;;;;;;5229914;28;20437;-49
2023/01/12 07:36:10;;;;;;;5.73;2.17;;;7.60;99.90;;;;;;5226462;28;20459;-50
2023/01/12 07:38:42;;;;;;;6.50;2.13;;;7.60;99.90;;;;;;5227239;28;26480;-50
2023/01/12 07:44:02;;;;;;;8.33;2.27;;;7.80;99.90;;;;;;5229824;28;20468;-49
2023/01/12 07:46:33;;;;;;;7.90;1.50;;;7.70;99.90;;;;;;5243707;28;20784;-51
2023/01/12 07:49:04;;;;;;;7.10;2.27;;;7.80;99.90;;;;;;5248003;28;20194;-51
2023/01/12 07:51:35;;;;;;;6.93;1.80;;;7.80;99.90;;;;;;5228480;28;20787;-50
2023/01/12 07:54:06;;;;;;;7.70;1.73;;;7.90;99.90;;;;;;5242729;28;20190;-49
2023/01/12 07:56:37;;;;;;;13.13;2.10;;;8.00;99.90;;;;;;5241205;28;20198;-49
2023/01/12 07:59:07;;;;;;;11.30;2.10;;;8.10;99.90;;;;;;5227572;28;20209;-51
2023/01/12 08:01:39;;;;;;;8.70;3.07;;;7.90;99.90;;;;;;5244211;28;20174;-51
2023/01/12 08:04:10;;;;;;;3.63;2.20;;;8.00;99.90;;;;;;5223451;28;20209;-53
2023/01/12 08:06:41;;;;;;;6.30;2.53;;;8.00;99.90;;;;;;5241897;28;20486;-53
2023/01/12 08:09:12;;;;;;;6.13;1.90;;;7.90;99.90;;;;;;5239955;28;20618;-53
2023/01/12 08:11:42;;;;;;;3.77;1.97;;;8.20;99.90;;;;;;5225387;28;20178;-51
2023/01/12 08:14:26;;;;;;;9.40;3.30;;;8.10;99.90;;;;;;5228258;28;20190;-50
2023/01/12 08:17:00;;;;;;;6.70;2.50;;;8.10;99.90;;;;;;5225657;28;20186;-51
2023/01/12 08:19:44;;;;;;;6.60;3.03;;;8.00;99.90;;;;;;5241759;28;20467;-53
2023/01/12 08:22:20;;;;;;;11.03;3.93;;;8.10;99.90;;;;;;5243894;28;20439;-56
2023/01/12 08:25:02;;;;;;;9.10;3.30;;;8.10;99.90;;;;;;5242548;28;20459;-51
2023/01/12 08:27:35;;;;;;;11.47;5.50;;;8.10;99.90;;;;;;5242618;28;20523;-54
2023/01/12 08:30:07;;;;;;;8.87;3.77;;;8.10;99.90;;;;;;5242222;28;20439;-51
2023/01/12 08:32:38;;;;;;;10.20;5.00;;;8.10;99.90;;;;;;5225673;28;20440;-51
2023/01/12 08:35:11;;;;;;;7.10;2.70;;;8.10;99.90;;;;;;5227081;28;20785;-49
2023/01/12 08:37:42;;;;;;;8.37;5.27;;;8.20;99.90;;;;;;5227119;28;20295;-51
2023/01/12 08:40:14;;;;;;;15.03;6.57;;;8.40;99.90;;;;;;5245153;28;20850;-52
2023/01/12 08:42:44;;;;;;;10.13;4.27;;;8.40;99.90;;;;;;5249546;28;20543;-49
2023/01/12 08:45:15;;;;;;;8.43;3.70;;;8.40;99.90;;;;;;5247062;28;21009;-52
2023/01/12 08:47:47;;;;;;;9.33;4.73;;;8.30;99.90;;;;;;5249068;28;20182;-54
2023/01/12 08:50:17;;;;;;;5.00;2.90;;;8.30;99.90;;;;;;5246699;28;20206;-50
2023/01/12 08:52:50;;;;;;;5.90;2.40;;;8.30;99.90;;;;;;5245727;28;20486;-50
2023/01/12 08:55:21;;;;;;;3.13;2.33;;;8.50;99.90;;;;;;5246743;28;20201;-51
2023/01/12 08:57:54;;;;;;;5.40;2.03;;;8.50;99.90;;;;;;5221018;28;20436;-51
2023/01/12 09:00:25;;;;;;;4.43;2.07;;;8.60;99.90;;;;;;5228916;28;20182;-52
2023/01/12 09:02:56;;;;;;;6.20;2.60;;;8.60;99.90;;;;;;5220977;28;20468;-51
2023/01/12 09:05:27;;;;;;;4.30;2.23;;;8.50;99.90;;;;;;5228978;28;20265;-52
2023/01/12 09:07:57;;;;;;;7.30;2.80;;;8.60;99.90;;;;;;5227950;28;20209;-52
2023/01/12 09:10:28;;;;;;;7.80;2.20;;;8.80;99.90;;;;;;5226303;28;20441;-52
2023/01/12 09:12:59;;;;;;;21.97;6.37;;;8.70;99.90;;;;;;5246896;28;20186;-51
2023/01/12 09:15:30;;;;;;;10.33;5.90;;;8.90;99.90;;;;;;5246420;28;20187;-52
2023/01/12 09:18:01;;;;;;;6.57;4.10;;;8.90;99.90;;;;;;5235190;28;20213;-51
2023/01/12 09:20:33;;;;;;;9.00;3.80;;;8.90;99.90;;;;;;5246702;28;20667;-52
2023/01/12 09:23:03;;;;;;;10.30;3.43;;;8.80;99.90;;;;;;5227777;28;20301;-50
2023/01/12 09:25:34;;;;;;;10.13;3.33;;;8.90;99.90;;;;;;5228491;28;20538;-52
2023/01/12 09:28:05;;;;;;;10.43;2.13;;;8.80;99.90;;;;;;5228835;28;20198;-51
2023/01/12 09:30:36;;;;;;;2.50;1.53;;;8.90;99.90;;;;;;5246161;28;20186;-51
2023/01/12 09:33:06;;;;;;;7.27;2.20;;;8.90;99.90;;;;;;5228685;28;20229;-52
2023/01/12 09:35:38;;;;;;;6.60;2.10;;;8.90;99.90;;;;;;5229110;28;20179;-51
2023/01/12 09:38:09;;;;;;;3.87;1.70;;;8.90;99.90;;;;;;5244421;28;20226;-52
2023/01/12 09:40:44;;;;;;;11.20;2.00;;;9.00;99.90;;;;;;5245020;28;20456;-52
2023/01/12 09:48:54;;;;;;;1.63;1.53;;;9.20;99.90;;;;;;5232879;28;20459;-53
2023/01/12 09:51:32;;;;;;;10.30;2.10;;;9.30;99.90;;;;;;5229970;28;20432;-53
2023/01/12 09:54:04;;;;;;;6.53;1.90;;;9.40;99.90;;;;;;5242814;28;20467;-51
2023/01/12 09:57:00;;;;;;;1.57;1.47;;;9.40;99.90;;;;;;5228528;28;20463;-52
2023/01/12 09:59:48;;;;;;;6.20;1.83;;;9.40;99.90;;;;;;5228476;28;21329;-52
2023/01/12 10:02:19;;;;;;;7.10;1.43;;;9.40;99.90;;;;;;5242700;28;20436;-52
2023/01/12 10:04:53;;;;;;;4.03;1.13;;;9.50;99.90;;;;;;5246635;28;20428;-51
2023/01/12 10:07:30;;;;;;;4.03;1.80;;;9.50;99.90;;;;;;5246009;28;20673;-52
2023/01/12 10:10:01;;;;;;;13.83;1.33;;;9.70;99.90;;;;;;5226820;28;20464;-53
2023/01/12 10:12:40;;;;;;;5.20;1.50;;;9.70;99.90;;;;;;5239011;28;20506;-52
2023/01/12 10:15:38;;;;;;;6.43;1.50;;;9.70;99.90;;;;;;5226208;28;20186;-51
2023/01/12 10:18:30;;;;;;;10.23;2.70;;;9.90;99.90;;;;;;5224634;28;20812;-52
2023/01/12 10:21:01;;;;;;;19.83;2.10;;;9.90;99.90;;;;;;5239713;28;20468;-52
2023/01/12 10:23:33;;;;;;;3.90;2.13;;;10.00;99.90;;;;;;5238541;28;20491;-51
2023/01/12 10:26:36;;;;;;;12.03;3.40;;;10.10;99.90;;;;;;5244122;28;20557;-51
2023/01/12 10:29:10;;;;;;;10.53;2.07;;;9.90;99.90;;;;;;5227844;28;20496;-52
2023/01/12 10:31:41;;;;;;;9.10;2.53;;;9.90;99.90;;;;;;5225870;28;20467;-52
2023/01/12 10:34:12;;;;;;;7.90;2.60;;;9.90;99.90;;;;;;5241388;28;20468;-50
2023/01/12 10:36:48;;;;;;;6.10;1.77;;;10.00;99.90;;;;;;5241304;28;20189;-52
2023/01/12 10:39:31;;;;;;;4.70;1.77;;;10.00;99.90;;;;;;5242249;28;20455;-52
2023/01/12 10:45:20;;;;;;;3.73;1.67;;;9.90;99.90;;;;;;5243526;28;20419;-52
2023/01/12 10:47:52;;;;;;;8.90;2.00;;;9.90;99.90;;;;;;5244839;28;20440;-52
2023/01/12 10:50:30;;;;;;;2.53;1.40;;;9.80;99.90;;;;;;5243087;28;20436;-51
2023/01/12 10:53:12;;;;;;;3.37;1.60;;;9.80;99.90;;;;;;5242873;28;20501;-52
2023/01/12 10:55:44;;;;;;;4.57;1.70;;;9.80;99.90;;;;;;5243605;28;20504;-52
2023/01/12 10:58:25;;;;;;;4.20;1.33;;;9.70;99.90;;;;;;5244954;28;20458;-51
2023/01/12 11:00:56;;;;;;;7.83;1.87;;;9.60;99.90;;;;;;5246367;28;20440;-53
2023/01/12 11:03:31;;;;;;;2.67;1.30;;;9.70;99.90;;;;;;5243740;28;20481;-53
2023/01/12 11:06:25;;;;;;;4.07;1.97;;;9.60;99.90;;;;;;5244819;28;20849;-52
2023/01/12 11:08:57;;;;;;;4.50;2.10;;;9.60;99.90;;;;;;5226732;28;20530;-52
2023/01/12 11:11:30;;;;;;;7.07;1.67;;;9.50;99.90;;;;;;5243139;28;20429;-52
2023/01/12 11:14:03;;;;;;;5.60;1.90;;;9.50;99.90;;;;;;5242921;28;20500;-52
2023/01/12 11:16:43;;;;;;;6.40;1.80;;;9.60;99.90;;;;;;5242385;28;20437;-51
2023/01/12 11:19:31;;;;;;;4.90;1.67;;;9.60;99.90;;;;;;5244380;28;20468;-52
2023/01/12 11:22:26;;;;;;;11.70;3.07;;;9.50;99.90;;;;;;5241637;28;20433;-51
2023/01/12 11:25:11;;;;;;;2.90;1.80;;;9.40;99.90;;;;;;5240423;28;20432;-52
2023/01/12 11:28:03;;;;;;;2.83;1.90;;;9.30;99.90;;;;;;5233576;28;20456;-52
2023/01/12 11:30:53;;;;;;;7.80;1.80;;;9.20;99.90;;;;;;5235022;28;20452;-52
2023/01/12 11:33:37;;;;;;;16.97;2.20;;;9.20;99.90;;;;;;5234483;28;20429;-52
2023/01/12 11:36:16;;;;;;;6.20;1.60;;;9.10;99.90;;;;;;5235364;28;20440;-52
2023/01/12 11:38:50;;;;;;;6.30;1.90;;;9.10;99.90;;;;;;5216999;28;20488;-52
2023/01/12 11:41:42;;;;;;;4.30;1.60;;;9.10;99.90;;;;;;5217086;28;20452;-52
2023/01/12 11:44:24;;;;;;;2.33;1.20;;;9.00;99.90;;;;;;5235218;28;20560;-52
2023/01/12 11:47:09;;;;;;;6.27;2.07;;;8.90;99.90;;;;;;5217436;28;20441;-52
2023/01/12 11:49:43;;;;;;;8.77;1.90;;;8.70;99.90;;;;;;5234178;28;20475;-53
2023/01/12 11:52:15;;;;;;;4.00;1.87;;;8.70;99.90;;;;;;5240725;28;20432;-52
2023/01/12 11:54:45;;;;;;;2.83;2.23;;;8.60;99.90;;;;;;5227848;28;20433;-51
2023/01/12 11:57:50;;;;;;;7.37;1.20;;;8.60;99.90;;;;;;5226276;28;20938;-52
2023/01/12 12:00:38;;;;;;;3.40;1.90;;;8.70;99.90;;;;;;5237127;28;20281;-52
2023/01/12 12:03:41;;;;;;;10.20;1.57;;;8.70;99.90;;;;;;5234223;28;20529;-52
2023/01/12 12:06:50;;;;;;;2.27;1.50;;;8.80;99.90;;;;;;5216419;28;20487;-51
2023/01/12 12:09:30;;;;;;;5.93;1.77;;;8.70;99.90;;;;;;5243029;28;20460;-52
2023/01/12 12:12:15;;;;;;;6.90;1.90;;;8.90;99.90;;;;;;5241628;28;20539;-53
2023/01/12 12:15:09;;;;;;;4.00;1.10;;;8.90;99.90;;;;;;5241009;28;20432;-52
2023/01/12 12:17:53;;;;;;;13.33;3.40;;;9.00;99.90;;;;;;5247105;28;20852;-53
2023/01/12 12:20:33;;;;;;;2.97;1.47;;;9.00;99.90;;;;;;5243783;28;21013;-51
2023/01/12 12:24:02;;;;;;;3.43;1.57;;;9.00;99.90;;;;;;5246281;28;20904;-52
2023/01/12 12:26:41;;;;;;;1.57;1.17;;;9.10;99.90;;;;;;5182269;28;20443;-52
2023/01/12 12:29:20;;;;;;;9.23;1.70;;;9.20;99.90;;;;;;5177942;28;20533;-52
2023/01/12 12:32:12;;;;;;;2.73;1.37;;;9.20;99.90;;;;;;5226993;28;20428;-52
2023/01/12 12:34:57;;;;;;;2.30;1.17;;;9.20;99.90;;;;;;5247681;28;20800;-53
2023/01/12 12:38:06;;;;;;;6.43;1.87;;;9.30;99.90;;;;;;5244438;28;20436;-53
2023/01/12 12:46:45;;;;;;;4.30;1.30;;;9.60;99.90;;;;;;5231056;28;20575;-52
2023/01/12 12:49:26;;;;;;;2.67;0.87;;;9.60;99.90;;;;;;5242094;28;20939;-53
2023/01/12 12:51:59;;;;;;;2.03;1.00;;;9.70;99.90;;;;;;5241838;28;20463;-51
2023/01/12 12:54:30;;;;;;;1.13;1.00;;;9.80;99.90;;;;;;5242968;28;20431;-52
2023/01/12 12:57:03;;;;;;;3.03;1.00;;;9.80;99.90;;;;;;5238917;28;20866;-52
2023/01/12 12:59:55;;;;;;;2.33;1.00;;;9.70;99.90;;;;;;5240284;28;20534;-52
2023/01/12 13:03:00;;;;;;;3.70;0.80;;;9.80;99.90;;;;;;5231685;28;20888;-51
2023/01/12 13:05:42;;;;;;;1.40;1.00;;;9.90;99.90;;;;;;5234335;28;21039;-50
2023/01/12 13:08:20;;;;;;;1.20;1.10;;;9.90;99.90;;;;;;5223215;28;20455;-50
2023/01/12 13:10:57;;;;;;;2.00;0.93;;;9.90;99.90;;;;;;5237195;28;20784;-53
2023/01/12 13:13:31;;;;;;;3.33;1.17;;;9.90;99.90;;;;;;5224479;28;20795;-52
2023/01/12 13:16:14;;;;;;;2.60;1.30;;;9.90;99.90;;;;;;5225082;28;21075;-52
2023/01/12 13:18:48;;;;;;;1.17;0.77;;;9.90;99.90;;;;;;5238818;28;20476;-52
2023/01/12 13:21:44;;;;;;;0.50;0.50;;;9.90;99.90;;;;;;5237634;28;20920;-52
2023/01/12 13:24:23;;;;;;;1.40;0.97;;;9.90;99.90;;;;;;5240515;28;20500;-52
2023/01/12 13:26:56;;;;;;;1.93;0.80;;;9.90;99.90;;;;;;5238708;28;20438;-53
2023/01/12 13:29:27;;;;;;;1.80;0.90;;;9.90;99.90;;;;;;5225486;28;20822;-52
2023/01/12 13:32:34;;;;;;;2.93;1.03;;;10.00;99.90;;;;;;5220337;28;20448;-51
2023/01/12 13:35:45;;;;;;;0.50;0.40;;;9.80;99.90;;;;;;5235395;28;20273;-52
2023/01/12 13:38:42;;;;;;;2.30;0.70;;;9.90;99.90;;;;;;5231371;28;20452;-52
2023/01/12 13:41:13;;;;;;;3.13;0.80;;;9.90;99.90;;;;;;5242544;28;20436;-53
2023/01/12 13:43:47;;;;;;;1.53;0.60;;;9.90;99.90;;;;;;5244392;28;20471;-52
2023/01/12 13:46:25;;;;;;;1.17;0.70;;;10.00;99.90;;;;;;5234216;28;20285;-52
2023/01/12 13:48:57;;;;;;;2.00;0.70;;;10.00;99.90;;;;;;5220507;28;21032;-53
2023/01/12 13:51:41;;;;;;;0.80;0.80;;;9.90;99.90;;;;;;5220537;28;20835;-51
2023/01/12 13:54:14;;;;;;;3.23;1.37;;;10.00;99.90;;;;;;5240793;28;20437;-51
2023/01/12 13:56:57;;;;;;;0.50;0.50;;;10.00;99.90;;;;;;5239435;28;20441;-51
2023/01/12 13:59:29;;;;;;;1.23;0.70;;;10.10;99.90;;;;;;5236560;28;20514;-51
2023/01/12 14:02:01;;;;;;;2.53;1.50;;;10.00;99.90;;;;;;5225135;28;20429;-51
2023/01/12 14:04:49;;;;;;;0.93;0.93;;;10.00;99.90;;;;;;5230460;28;20545;-52
2023/01/12 14:07:30;;;;;;;1.60;1.10;;;10.00;99.90;;;;;;5230515;28;20505;-52
2023/01/12 14:10:41;;;;;;;1.50;1.23;;;9.90;99.90;;;;;;5247329;28;20452;-52
2023/01/12 14:13:36;;;;;;;2.43;0.57;;;9.90;99.90;;;;;;5242562;28;20543;-51
2023/01/12 14:19:25;;;;;;;2.20;1.13;;;9.80;99.90;;;;;;5232921;28;20494;-52
2023/01/12 14:22:03;;;;;;;0.70;0.70;;;9.80;99.90;;;;;;5230297;28;20683;-51